Portada
METAR-TAF:

METAR-TAF

Aeroports :

Maré, Nova Caledònia

latitud: 21-28-53S, longitud: 168-02-15E, altitud: 42 m

METAR: manca

Hora: 00:52 (13:52 UTC)

Pronòstic

L'informe es va fer fa 2 hores i 52 minuts, a les 11:00 UTC
Pronòstic vàlid del 17 a les 12 UTC al 18 a les 12 UTC
Vent 2 kt amb direcció variable
Visibilitat 10 km o més
Escasses núvols a una alçada de 4000 ft
Evolucionant progressivament
l' 17 a les 22 UTC al 17 a les 24 UTC
Vent 10 kt del Est/Sud-Est
Evolucionant progressivament
l' 18 a les 06 UTC al 18 a les 08 UTC
Vent 2 kt amb direcció variable

TAF: NWWR 171100Z 1712/1812 VRB02KT 9999 FEW040 BECMG 1722/1724 11010KT BECMG 1806/1808 VRB02KT

Observacions i pronòstics meteorològics de més de 4000 aeroports (METAR i TAF).

Les estacions disponibles són els punts grocs i vermells al mapa.

Posi el ratolí al punt desitjat per veure el nom de l'estació.

Feu clic per veure les observacions i els pronòstics meteorològics.

Per canviar el mapa: feu clic els botons verds amb una creu de color negre per apropar; al botó verd amb un guió per allunyar la imatge; o en les fletxes verdes per a mapes adjacents.


METAR-TAF: